• Join FlightAware (Why Join?)
  • Login
  • US Flag 
06:05AM EST


 

Airport Tracker/Info


-or-


 

Live Flight TrackerFlight Track Log ✈ N487VC ✈ 18-Apr-2013 ✈ KMQI - KHPN

Flight Track Log - Related Links

Times and Time Zones

All times are in EDT time to prevent confusion due to time zone crossing. See the N487VC flight status page for this flight to view local times or setup timezone preferences in your user account.

Time Position Orientation Groundspeed Altitude Reporting Facility
EDT Latitude Longitude Course Direction KTS MPH feet Rate Location/Type
07:14PM 36.2481 -75.8611 341° North  Level FlightAware Approximate
07:16PM 35.9639 -75.7614 341° North 266 306 3,700  Level Washington Center
07:17PM 36.0014 -75.7847 333° Northwest 197 227 5,200 1,980 Climbing Washington Center
07:17PM 36.0161 -75.7847 360° North 226 260 5,700 1,860 Climbing Washington Center
07:18PM 36.0472 -75.8078 329° Northwest 201 231 6,900 1,680 Climbing Washington Center
07:18PM 36.0681 -75.8131 348° North 204 235 7,400 1,500 Climbing Washington Center
07:19PM 36.1056 -75.8361 334° Northwest 213 245 8,600 1,500 Climbing Washington Center
07:19PM 36.1244 -75.8364 359° North 204 235 8,900 1,680 Climbing Washington Center
07:20PM 36.1683 -75.8647 332° Northwest 222 255 10,300 1,560 Climbing Washington Center
07:20PM 36.1808 -75.8647 360° North 210 242 10,500 1,500 Climbing Washington Center
07:21PM 36.2183 -75.8881 333° Northwest 216 249 11,700 1,560 Climbing Washington Center
07:21PM 36.2369 -75.8908 353° North 215 247 12,100 1,440 Climbing Washington Center
07:22PM 36.2744 -75.9167 331° Northwest 221 254 13,200 1,500 Climbing Washington Center
07:22PM 36.2953 -75.9192 354° North 215 247 13,600 1,500 Climbing Washington Center
07:23PM 36.3350 -75.9425 335° Northwest 228 262 14,700 1,500 Climbing Washington Center
07:23PM 36.3536 -75.9453 353° North 215 247 15,100 1,320 Climbing Washington Center
07:24PM 36.3828 -75.9661 330° Northwest 225 259 15,800 900 Climbing Washington Center
07:24PM 36.4142 -75.9739 349° North 215 247 16,000 180 Climbing Washington Center
07:25PM 36.4411 -75.9922 331° Northwest 254 292 16,000  Level Washington Center
07:25PM 36.4828 -76.0053 346° North 233 268 16,000  Level Washington Center
07:26PM 36.5078 -76.0236 329° Northwest 268 308 16,000  Level Washington Center
07:26PM 36.5517 -76.0392 344° North 248 285 16,000  Level Washington Center
07:27PM 36.5744 -76.0522 335° Northwest 271 312 16,000  Level Washington Center
07:28PM 36.6453 -76.0889 337° Northwest 271 312 16,000  Level Washington Center
07:29PM 36.7161 -76.1206 340° North 274 315 16,000  Level Washington Center
07:30PM 36.7972 -76.1600 339° North 273 314 16,000  Level Washington Center
07:31PM 36.8742 -76.1994 338° Northwest 279 321 16,000  Level Washington Center
07:32PM 36.9453 -76.1844 10° North 308 354 16,000  Level Washington Center
07:33PM 37.0519 -76.1358 20° North 303 349 16,000  Level Washington Center
07:34PM 37.1250 -76.1025 20° North 295 339 16,000  Level Washington Center
07:35PM 37.2003 -76.0664 21° North 289 333 16,000  Level Washington Center
07:36PM 37.2756 -76.0331 19° North 289 333 16,000  Level Washington Center
07:37PM 37.3508 -76.0019 18° North 289 333 16,000  Level Washington Center
07:38PM 37.4217 -75.9500 30° Northeast 289 333 16,000  Level Washington Center
07:39PM 37.4886 -75.8956 33° Northeast 289 333 16,000  Level Washington Center
07:40PM 37.5597 -75.8458 29° Northeast 289 333 16,000  Level Washington Center
07:41PM 37.6286 -75.7936 31° Northeast 289 333 16,000  Level Washington Center
07:42PM 37.6956 -75.7439 30° Northeast 289 333 16,000  Level Washington Center
07:43PM 37.7664 -75.6917 30° Northeast 289 333 16,000  Level Washington Center
07:44PM 37.8353 -75.6392 31° Northeast 289 333 16,000  Level Washington Center
07:45PM 37.9042 -75.5867 31° Northeast 289 333 16,000  Level Washington Center
07:46PM 37.9750 -75.5339 30° Northeast 289 333 16,000  Level Washington Center
07:47PM 38.0458 -75.4783 32° Northeast 289 333 16,000  Level Washington Center
07:48PM 38.1189 -75.4333 26° Northeast 289 333 16,000  Level Washington Center
07:49PM 38.1939 -75.3883 25° Northeast 289 333 16,000  Level Washington Center
07:50PM 38.2708 -75.3431 25° Northeast 289 333 16,000  Level Washington Center
07:51PM 38.3333 -75.2872 35° Northeast 294 338 16,100 480 Climbing Washington Center
07:52PM 38.4042 -75.2472 24° Northeast 287 330 17,000 420 Climbing Washington Center
07:53PM 38.4686 -75.1858 37° Northeast 282 325 17,000  Level Washington Center
07:54PM 38.5328 -75.1219 38° Northeast 287 330 17,000  Level Washington Center
07:55PM 38.5994 -75.0578 37° Northeast 292 336 17,000  Level Washington Center
07:56PM 38.6658 -74.9933 37° Northeast 292 336 17,000  Level Washington Center
07:57PM 38.7322 -74.9264 38° Northeast 297 342 17,000  Level Washington Center
07:58PM 38.8006 -74.8617 36° Northeast 297 342 17,000  Level Washington Center
07:59PM 38.8689 -74.7972 36° Northeast 297 342 17,000  Level Washington Center
08:00PM 38.9331 -74.7297 39° Northeast 297 342 17,000  Level Washington Center
08:01PM 39.0014 -74.6647 36° Northeast 297 342 17,000  Level Washington Center
08:02PM 39.0675 -74.5997 37° Northeast 297 342 17,000  Level Washington Center
08:03PM 39.1356 -74.5292 39° Northeast 297 342 17,000  Level Washington Center
08:04PM 39.1878 -74.4833 34° Northeast 306 352 17,000  Level New York Center
08:05PM 39.2547 -74.4144 39° Northeast 306 352 17,000 -60 Level New York Center
08:06PM 39.3214 -74.3481 38° Northeast 306 352 16,900 -60 Descending New York Center
08:07PM 39.3881 -74.2817 38° Northeast 306 352 16,900  Level New York Center
08:08PM 39.4569 -74.2097 39° Northeast 306 352 16,900  Level New York Center
08:09PM 39.5278 -74.1353 39° Northeast 306 352 16,900  Level New York Center
08:10PM 39.5822 -74.0517 50° Northeast 301 346 16,900  Level New York Center
08:11PM 39.6325 -73.9758 49° Northeast 296 341 16,900  Level New York Center
08:12PM 39.6847 -73.8919 51° Northeast 296 341 16,900 -240 Level New York Center
08:13PM 39.7456 -73.7972 50° Northeast 296 341 16,500 -840 Descending New York Center
08:14PM 39.7956 -73.7158 51° Northeast 302 348 15,300 -780 Descending New York Center
08:15PM 39.8500 -73.6261 52° Northeast 307 353 15,000 -180 Descending New York Center
08:16PM 39.9019 -73.5444 50° Northeast 307 353 15,000  Level New York Center
08:17PM 39.9619 -73.4711 43° Northeast 295 339 15,000  Level New York Center
08:18PM 40.0261 -73.3950 42° Northeast 295 339 15,000  Level New York Center
08:19PM 40.0944 -73.3189 40° Northeast 295 339 15,000 -660 Level New York Center
08:21PM 40.2161 -73.1711 43° Northeast 298 343 13,000 -1,020 Descending Boston Center
08:23PM 40.3667 -72.9833 44° Northeast 294 338 10,600 -1,140 Descending New York TRACON
08:24PM 40.4333 -72.9000 44° Northeast 308 354 9,100 -1,440 Descending New York TRACON
08:25PM 40.5000 -72.8333 37° Northeast 310 357 7,800 -1,200 Descending New York TRACON
08:26PM 40.5667 -72.7500 44° Northeast 298 343 6,900 -480 Descending New York TRACON
08:27PM 40.6333 -72.7500 360° North 266 306 6,900  Level New York TRACON
08:28PM 40.7000 -72.8000 330° Northwest 255 293 6,900  Level New York TRACON
08:29PM 40.7500 -72.8333 333° Northwest 256 295 6,900  Level New York TRACON
08:30PM 40.8167 -72.8833 330° Northwest 255 293 6,900  Level New York TRACON
08:31PM 40.8833 -72.9333 330° Northwest 259 298 6,900 -480 Level New York TRACON
08:32PM 40.9167 -73.0000 304° West 257 296 6,000 -1,200 Descending New York TRACON
08:33PM 40.9667 -73.0833 308° West 261 300 4,500 -1,080 Descending New York TRACON
08:34PM 41.0000 -73.1667 298° West 247 284 3,900 -300 Descending New York TRACON
08:35PM 41.0500 -73.2333 315° West 241 277 3,900  Level New York TRACON
08:36PM 41.0833 -73.3000 304° West 237 273 3,900  Level New York TRACON
08:37PM 41.1167 -73.3833 298° West 240 276 3,900  Level New York TRACON
08:38PM 41.1333 -73.4500 288° West 233 268 4,000 -180 Climbing New York TRACON
08:39PM 41.1667 -73.5333 298° West 233 268 3,600 -480 Descending New York TRACON
08:40PM 41.1833 -73.6333 283° West 249 287 3,000 -420 Descending New York TRACON
08:41PM 41.2167 -73.7000 304° West 241 277 2,800 -240 Descending New York TRACON